createdAt,value
2023-01-17T00:00:48.064Z,21.40
2023-01-17T00:03:15.311Z,32.20
2023-01-17T00:06:04.695Z,37.60
2023-01-17T00:08:50.572Z,35.40
2023-01-17T00:12:24.794Z,33.70
2023-01-17T00:14:59.156Z,35.00
2023-01-17T00:17:49.460Z,29.00
2023-01-17T00:21:36.120Z,23.10
2023-01-17T00:24:55.394Z,25.20
2023-01-17T00:27:27.661Z,21.70
2023-01-17T00:30:04.355Z,26.20
2023-01-17T00:32:31.688Z,21.20
2023-01-17T00:35:40.313Z,23.70
2023-01-17T00:38:13.710Z,20.10
2023-01-17T00:40:48.973Z,29.60
2023-01-17T00:43:41.815Z,19.30
2023-01-17T00:46:30.784Z,27.20
2023-01-17T00:49:19.212Z,25.70
2023-01-17T00:52:07.666Z,22.20
2023-01-17T00:54:53.658Z,25.00
2023-01-17T00:58:00.149Z,23.60
2023-01-17T01:00:46.213Z,26.30
2023-01-17T01:03:43.478Z,29.20
2023-01-17T01:06:53.321Z,28.10
2023-01-17T01:09:39.219Z,32.50
2023-01-17T01:12:25.202Z,20.40
2023-01-17T01:15:11.193Z,25.50
2023-01-17T01:17:56.883Z,26.70
2023-01-17T01:20:43.381Z,21.70
2023-01-17T01:23:29.270Z,32.40
2023-01-17T01:26:28.267Z,24.70
2023-01-17T01:29:14.366Z,22.90
2023-01-17T01:32:00.048Z,20.20
2023-01-17T01:34:36.121Z,27.20
2023-01-17T01:37:03.568Z,29.50
2023-01-17T01:39:30.755Z,10.60
2023-01-17T01:41:58.781Z,27.70
2023-01-17T01:45:13.853Z,30.00
2023-01-17T01:48:33.831Z,20.20
2023-01-17T01:51:07.720Z,25.10
2023-01-17T01:53:39.906Z,31.20
2023-01-17T01:56:13.315Z,33.30
2023-01-17T01:58:44.150Z,34.80
2023-01-17T02:01:12.110Z,31.80
2023-01-17T02:04:10.527Z,29.30
2023-01-17T02:06:46.662Z,37.10
2023-01-17T02:09:20.883Z,32.50
2023-01-17T02:12:18.959Z,33.00
2023-01-17T02:14:49.686Z,34.40
2023-01-17T02:17:43.048Z,31.50
2023-01-17T02:21:07.037Z,31.50
2023-01-17T02:24:01.624Z,34.90
2023-01-17T02:26:56.731Z,38.80
2023-01-17T02:30:25.741Z,42.50
2023-01-17T02:33:00.558Z,44.50
2023-01-17T02:35:42.248Z,39.40
2023-01-17T02:38:51.385Z,46.20
2023-01-17T02:41:47.511Z,52.70
2023-01-17T02:44:58.591Z,52.00
2023-01-17T02:47:47.454Z,38.50
2023-01-17T02:50:48.438Z,52.50
2023-01-17T02:53:57.838Z,48.40
2023-01-17T02:56:45.681Z,41.90
2023-01-17T02:59:21.724Z,44.40
2023-01-17T03:02:19.318Z,38.90
2023-01-17T03:05:11.605Z,32.10
2023-01-17T03:08:00.792Z,34.90
2023-01-17T03:10:40.082Z,35.20
2023-01-17T03:13:32.783Z,54.00
2023-01-17T03:16:31.502Z,61.90
2023-01-17T03:19:15.410Z,57.40
2023-01-17T03:21:42.866Z,81.60
2023-01-17T03:24:18.824Z,84.80
2023-01-17T03:27:15.012Z,70.30
2023-01-17T03:29:42.313Z,58.50
2023-01-17T03:32:38.693Z,45.00
2023-01-17T03:35:07.205Z,32.20
2023-01-17T03:37:34.579Z,29.20
2023-01-17T03:40:04.699Z,31.50
2023-01-17T03:42:31.955Z,24.00
2023-01-17T03:44:59.101Z,33.00
2023-01-17T03:47:26.469Z,36.80
2023-01-17T03:50:03.728Z,29.40
2023-01-17T03:52:33.865Z,35.10
2023-01-17T03:55:02.785Z,34.00
2023-01-17T03:57:32.771Z,28.10
2023-01-17T04:00:21.177Z,22.70
2023-01-17T04:02:59.847Z,22.10
2023-01-17T04:05:27.301Z,23.90
2023-01-17T04:08:07.450Z,27.50
2023-01-17T04:10:34.911Z,24.40
2023-01-17T04:13:02.163Z,26.20
2023-01-17T04:15:29.824Z,35.70
2023-01-17T04:18:00.660Z,24.80
2023-01-17T04:20:51.770Z,38.20
2023-01-17T04:23:22.161Z,27.00
2023-01-17T04:25:49.351Z,29.50
2023-01-17T04:28:16.806Z,43.00
2023-01-17T04:30:44.112Z,31.50
2023-01-17T04:33:11.306Z,27.90
2023-01-17T04:35:41.328Z,23.30
2023-01-17T04:38:08.489Z,22.30
2023-01-17T04:40:35.839Z,25.90
2023-01-17T04:43:05.947Z,34.40
2023-01-17T04:45:33.197Z,36.00
2023-01-17T04:48:12.830Z,37.60
2023-01-17T04:50:40.638Z,34.90
2023-01-17T04:53:08.064Z,29.00
2023-01-17T04:55:50.160Z,31.70
2023-01-17T04:58:17.412Z,31.90
2023-01-17T05:00:51.160Z,41.10
2023-01-17T05:03:21.972Z,35.00
2023-01-17T05:05:49.875Z,38.80
2023-01-17T05:08:17.073Z,34.30
2023-01-17T05:10:47.757Z,29.20
2023-01-17T05:13:24.578Z,26.40
2023-01-17T05:15:52.271Z,24.30
2023-01-17T05:18:19.901Z,23.40
2023-01-17T05:20:47.359Z,18.90
2023-01-17T05:23:23.836Z,32.80
2023-01-17T05:26:02.447Z,44.30
2023-01-17T05:28:43.528Z,33.30
2023-01-17T05:31:14.199Z,59.00
2023-01-17T05:33:41.506Z,56.50
2023-01-17T05:36:10.141Z,49.10
2023-01-17T05:38:40.518Z,69.90
2023-01-17T05:41:16.779Z,57.10
2023-01-17T05:43:47.103Z,42.70
2023-01-17T05:46:29.164Z,62.60
2023-01-17T05:48:56.356Z,70.80
2023-01-17T05:51:38.735Z,74.60
2023-01-17T05:54:07.006Z,108.90
2023-01-17T05:56:54.561Z,115.60
2023-01-17T05:59:32.378Z,95.90
2023-01-17T06:02:04.139Z,88.70
2023-01-17T06:04:31.711Z,156.30
2023-01-17T06:07:24.632Z,181.70
2023-01-17T06:11:05.919Z,108.50
2023-01-17T06:13:36.562Z,87.40
2023-01-17T06:16:04.923Z,108.20
2023-01-17T06:18:43.957Z,102.90
2023-01-17T06:21:11.216Z,144.30
2023-01-17T06:23:50.038Z,110.90
2023-01-17T06:26:17.393Z,98.40
2023-01-17T06:29:24.985Z,98.30
2023-01-17T06:31:52.441Z,86.90
2023-01-17T06:34:19.796Z,82.60
2023-01-17T06:36:47.053Z,91.70
2023-01-17T06:39:17.280Z,78.70
2023-01-17T06:41:54.147Z,65.80
2023-01-17T06:44:21.409Z,45.00
2023-01-17T06:46:48.677Z,60.90
2023-01-17T06:49:16.110Z,68.70
2023-01-17T06:52:03.532Z,91.20
2023-01-17T06:54:39.798Z,81.10
2023-01-17T06:57:06.847Z,94.50
2023-01-17T06:59:39.735Z,146.80
2023-01-17T07:02:08.822Z,177.90
2023-01-17T07:04:59.933Z,265.90
2023-01-17T07:07:33.844Z,151.50
2023-01-17T07:10:03.758Z,109.20
2023-01-17T07:12:31.111Z,125.90
2023-01-17T07:15:23.164Z,150.00
2023-01-17T07:17:50.294Z,154.30
2023-01-17T07:20:20.923Z,161.30
2023-01-17T07:22:51.250Z,153.80
2023-01-17T07:25:20.340Z,125.00
2023-01-17T07:27:53.637Z,122.30
2023-01-17T07:30:22.020Z,73.80
2023-01-17T07:33:05.775Z,100.90
2023-01-17T07:35:32.901Z,52.30
2023-01-17T07:38:04.355Z,88.00
2023-01-17T07:40:42.332Z,72.50
2023-01-17T07:43:19.233Z,94.00
2023-01-17T07:45:56.030Z,96.30
2023-01-17T07:48:26.242Z,111.40
2023-01-17T07:50:58.483Z,101.40
2023-01-17T07:53:30.803Z,100.30
2023-01-17T07:56:20.352Z,75.50
2023-01-17T07:58:48.731Z,117.10
2023-01-17T08:01:19.097Z,102.70
2023-01-17T08:03:46.872Z,100.80
2023-01-17T08:06:24.708Z,97.30
2023-01-17T08:09:15.516Z,105.10
2023-01-17T08:11:45.743Z,55.50
2023-01-17T08:14:15.980Z,61.20
2023-01-17T08:16:48.637Z,49.70
2023-01-17T08:19:24.800Z,49.60
2023-01-17T08:21:52.154Z,51.60
2023-01-17T08:24:22.296Z,60.80
2023-01-17T08:26:49.426Z,63.40
2023-01-17T08:29:18.828Z,56.10
2023-01-17T08:31:49.803Z,79.10
2023-01-17T08:34:29.102Z,73.30
2023-01-17T08:37:06.900Z,72.00
2023-01-17T08:39:34.268Z,83.70
2023-01-17T08:42:01.608Z,71.70
2023-01-17T08:44:28.861Z,114.30
2023-01-17T08:46:58.471Z,127.20
2023-01-17T08:49:31.248Z,105.10
2023-01-17T08:51:58.716Z,79.40
2023-01-17T08:54:29.136Z,56.20
2023-01-17T08:56:58.840Z,77.70
2023-01-17T08:59:26.342Z,71.20
2023-01-17T09:01:55.619Z,91.20
2023-01-17T09:04:23.613Z,99.00
2023-01-17T09:06:50.924Z,69.60
2023-01-17T09:09:18.981Z,68.50
2023-01-17T09:11:46.448Z,64.80
2023-01-17T09:14:14.421Z,74.10
2023-01-17T09:16:41.810Z,37.30
2023-01-17T09:19:10.369Z,65.00
2023-01-17T09:23:01.376Z,70.70
2023-01-17T09:26:09.479Z,69.00
2023-01-17T09:28:54.474Z,74.40
2023-01-17T09:31:27.510Z,68.80
2023-01-17T09:33:59.410Z,64.30
2023-01-17T09:36:33.974Z,69.10
2023-01-17T09:39:11.724Z,64.60
2023-01-17T09:41:51.987Z,67.10
2023-01-17T09:44:48.207Z,73.40
2023-01-17T09:47:33.705Z,50.60
2023-01-17T09:50:51.104Z,49.40
2023-01-17T09:53:23.186Z,38.60
2023-01-17T09:56:12.648Z,33.80
2023-01-17T09:59:32.736Z,45.10
2023-01-17T10:02:38.775Z,41.40
2023-01-17T10:05:53.160Z,36.30
2023-01-17T10:09:14.480Z,29.00
2023-01-17T10:12:25.561Z,21.60
2023-01-17T10:16:00.086Z,23.00
2023-01-17T10:19:37.385Z,16.10
2023-01-17T10:22:55.993Z,17.60
2023-01-17T10:25:43.680Z,11.30
2023-01-17T10:28:18.921Z,13.00
2023-01-17T10:30:58.077Z,13.80
2023-01-17T10:34:33.619Z,13.40
2023-01-17T10:37:44.538Z,11.90
2023-01-17T10:40:50.427Z,13.00
2023-01-17T10:43:44.504Z,12.90
2023-01-17T10:46:48.726Z,12.70
2023-01-17T10:49:24.996Z,11.80
2023-01-17T10:52:11.081Z,10.80
2023-01-17T10:54:40.703Z,8.50
2023-01-17T10:57:22.181Z,9.90
2023-01-17T10:59:50.612Z,11.00
2023-01-17T11:02:31.431Z,10.40
2023-01-17T11:05:14.856Z,9.10
2023-01-17T11:07:59.516Z,8.70
2023-01-17T11:10:59.956Z,12.00
2023-01-17T11:13:54.647Z,10.50
2023-01-17T11:16:28.959Z,10.90
2023-01-17T11:19:35.633Z,12.20
2023-01-17T11:22:07.055Z,9.00
2023-01-17T11:25:03.011Z,8.40
2023-01-17T11:27:34.870Z,10.60
2023-01-17T11:30:20.044Z,10.10
2023-01-17T11:33:07.268Z,10.00
2023-01-17T11:36:01.244Z,9.70
2023-01-17T11:38:28.698Z,8.50
2023-01-17T11:41:21.754Z,9.20
2023-01-17T11:44:02.118Z,8.00
2023-01-17T11:46:29.928Z,9.80
2023-01-17T11:49:09.625Z,9.80
2023-01-17T11:52:00.426Z,8.90
2023-01-17T11:54:39.172Z,9.90
2023-01-17T11:57:32.103Z,6.90
2023-01-17T12:00:27.004Z,8.70
2023-01-17T12:03:25.552Z,7.20
2023-01-17T12:05:58.182Z,6.80
2023-01-17T12:09:03.312Z,7.50
2023-01-17T12:12:29.848Z,7.90
2023-01-17T12:15:17.579Z,6.40
2023-01-17T12:18:19.955Z,8.50
2023-01-17T12:21:26.222Z,7.60
2023-01-17T12:24:52.100Z,6.80
2023-01-17T12:27:43.666Z,7.60
2023-01-17T12:30:17.393Z,7.10
2023-01-17T12:32:56.097Z,5.70
2023-01-17T12:35:50.875Z,7.60
2023-01-17T12:38:37.393Z,8.40
2023-01-17T12:42:13.772Z,6.70
2023-01-17T12:45:39.320Z,7.30
2023-01-17T12:48:20.464Z,7.40
2023-01-17T12:51:03.179Z,6.10
2023-01-17T12:53:38.313Z,8.00
2023-01-17T12:56:16.934Z,6.10
2023-01-17T12:58:53.092Z,7.60
2023-01-17T13:01:40.146Z,5.90
2023-01-17T13:04:57.682Z,5.80
2023-01-17T13:07:34.115Z,6.30
2023-01-17T13:10:20.099Z,6.80
2023-01-17T13:12:48.987Z,6.70
2023-01-17T13:15:21.564Z,4.90
2023-01-17T13:18:06.805Z,5.60
2023-01-17T13:20:42.898Z,6.10
2023-01-17T13:23:38.728Z,6.40
2023-01-17T13:26:47.750Z,6.10
2023-01-17T13:30:05.180Z,6.50
2023-01-17T13:32:55.571Z,6.40
2023-01-17T13:35:44.549Z,6.60
2023-01-17T13:38:42.504Z,7.10
2023-01-17T13:41:30.963Z,5.10
2023-01-17T13:44:21.605Z,8.00
2023-01-17T13:47:23.836Z,6.40
2023-01-17T13:49:56.862Z,7.70
2023-01-17T13:52:33.647Z,7.90
2023-01-17T13:55:07.278Z,8.60
2023-01-17T13:57:43.910Z,8.20
2023-01-17T14:00:43.195Z,7.30
2023-01-17T14:03:14.866Z,8.60
2023-01-17T14:05:41.882Z,8.70
2023-01-17T14:08:22.135Z,6.10
2023-01-17T14:10:58.181Z,6.50
2023-01-17T14:13:29.223Z,6.10
2023-01-17T14:15:56.582Z,6.90
2023-01-17T14:18:43.185Z,8.70
2023-01-17T14:21:20.164Z,8.60
2023-01-17T14:24:10.761Z,7.80
2023-01-17T14:26:59.202Z,11.80
2023-01-17T14:29:57.442Z,7.40
2023-01-17T14:32:32.227Z,6.40
2023-01-17T14:35:00.234Z,7.10
2023-01-17T14:37:37.369Z,8.60
2023-01-17T14:40:30.654Z,10.40
2023-01-17T14:43:25.223Z,8.50
2023-01-17T14:46:28.124Z,8.00
2023-01-17T14:49:25.676Z,8.60
2023-01-17T14:52:06.413Z,10.00
2023-01-17T14:54:33.898Z,9.30
2023-01-17T14:57:28.482Z,11.20
2023-01-17T15:00:24.621Z,8.60
2023-01-17T15:02:54.139Z,9.80
2023-01-17T15:05:27.830Z,10.80
2023-01-17T15:08:05.015Z,9.70
2023-01-17T15:11:05.470Z,8.50
2023-01-17T15:13:45.209Z,15.20
2023-01-17T15:16:35.440Z,19.80
2023-01-17T15:19:18.501Z,22.10
2023-01-17T15:21:59.169Z,19.70
2023-01-17T15:24:53.757Z,21.80
2023-01-17T15:27:25.210Z,30.20
2023-01-17T15:29:59.327Z,36.70
2023-01-17T15:32:31.916Z,27.30
2023-01-17T15:35:08.468Z,22.00
2023-01-17T15:37:40.029Z,28.90
2023-01-17T15:40:28.176Z,33.80
2023-01-17T15:43:37.913Z,32.70
2023-01-17T15:46:43.789Z,28.20
2023-01-17T15:49:19.853Z,23.70
2023-01-17T15:51:53.325Z,24.80
2023-01-17T15:54:25.295Z,29.40
2023-01-17T15:57:39.131Z,24.40
2023-01-17T16:00:21.765Z,26.90
2023-01-17T16:03:00.121Z,14.50
2023-01-17T16:05:33.468Z,15.90
2023-01-17T16:08:07.474Z,16.50
2023-01-17T16:10:50.792Z,16.20
2023-01-17T16:13:30.641Z,18.20
2023-01-17T16:16:23.002Z,11.80
2023-01-17T16:18:59.243Z,13.80
2023-01-17T16:21:32.021Z,15.20
2023-01-17T16:24:19.903Z,22.80
2023-01-17T16:26:47.212Z,126.30
2023-01-17T16:29:14.467Z,134.60
2023-01-17T16:31:41.718Z,85.40
2023-01-17T16:34:14.293Z,64.10
2023-01-17T16:36:44.308Z,80.70
2023-01-17T16:39:15.243Z,92.10
2023-01-17T16:41:43.124Z,63.30
2023-01-17T16:44:10.570Z,64.70
2023-01-17T16:46:38.781Z,63.50
2023-01-17T16:49:06.516Z,69.70
2023-01-17T16:51:34.787Z,89.40
2023-01-17T16:54:02.752Z,85.10
2023-01-17T16:56:33.080Z,84.60
2023-01-17T16:59:00.437Z,74.60
2023-01-17T17:01:27.859Z,72.30
2023-01-17T17:03:55.248Z,94.50
2023-01-17T17:06:22.597Z,102.40
2023-01-17T17:08:49.854Z,95.60
2023-01-17T17:11:21.141Z,83.40
2023-01-17T17:13:50.559Z,83.40
2023-01-17T17:16:26.764Z,80.90
2023-01-17T17:19:04.052Z,79.40
2023-01-17T17:21:42.459Z,78.30
2023-01-17T17:24:18.110Z,83.80
2023-01-17T17:26:48.431Z,77.50
2023-01-17T17:29:15.787Z,66.90
2023-01-17T17:31:43.343Z,103.10
2023-01-17T17:34:13.875Z,68.00
2023-01-17T17:36:41.547Z,78.00
2023-01-17T17:39:26.502Z,106.10
2023-01-17T17:42:02.971Z,102.50
2023-01-17T17:44:30.426Z,85.20
2023-01-17T17:47:04.067Z,76.70
2023-01-17T17:49:31.380Z,82.00
2023-01-17T17:52:13.081Z,74.00
2023-01-17T17:54:40.634Z,81.40
2023-01-17T17:57:10.647Z,81.80
2023-01-17T17:59:40.672Z,75.30
2023-01-17T18:02:11.667Z,160.40
2023-01-17T18:04:39.206Z,97.10
2023-01-17T18:07:06.627Z,118.00
2023-01-17T18:09:36.839Z,215.10
2023-01-17T18:12:08.000Z,158.90
2023-01-17T18:14:40.560Z,120.50
2023-01-17T18:17:07.810Z,140.10
2023-01-17T18:19:46.247Z,127.20
2023-01-17T18:22:21.784Z,117.80
2023-01-17T18:24:49.024Z,156.70
2023-01-17T18:27:19.244Z,141.60
2023-01-17T18:29:46.500Z,92.70
2023-01-17T18:32:34.332Z,90.60
2023-01-17T18:35:21.765Z,60.00
2023-01-17T18:37:57.825Z,65.80
2023-01-17T18:40:27.750Z,54.90
2023-01-17T18:42:55.386Z,64.80
2023-01-17T18:45:32.267Z,79.70
2023-01-17T18:48:14.267Z,79.70
2023-01-17T18:51:04.897Z,86.30
2023-01-17T18:54:06.894Z,106.60
2023-01-17T18:56:48.634Z,104.10
2023-01-17T18:59:21.812Z,86.10
2023-01-17T19:02:16.736Z,118.50
2023-01-17T19:05:19.908Z,109.00
2023-01-17T19:08:01.113Z,94.10
2023-01-17T19:10:37.347Z,88.50
2023-01-17T19:13:08.081Z,88.80
2023-01-17T19:15:37.893Z,128.10
2023-01-17T19:18:17.029Z,118.10
2023-01-17T19:20:45.201Z,56.60
2023-01-17T19:23:22.081Z,73.80
2023-01-17T19:25:57.006Z,73.90
2023-01-17T19:28:24.566Z,55.00
2023-01-17T19:31:06.386Z,32.80
2023-01-17T19:33:57.060Z,73.80
2023-01-17T19:36:43.166Z,72.50
2023-01-17T19:39:11.135Z,81.20
2023-01-17T19:41:53.735Z,88.70
2023-01-17T19:44:24.173Z,86.20
2023-01-17T19:46:51.617Z,73.60
2023-01-17T19:49:24.924Z,74.60
2023-01-17T19:51:52.574Z,74.50
2023-01-17T19:54:28.836Z,51.40
2023-01-17T19:56:58.549Z,64.80
2023-01-17T19:59:28.674Z,74.90
2023-01-17T20:01:56.455Z,82.70
2023-01-17T20:04:33.818Z,89.90
2023-01-17T20:07:18.170Z,93.40
2023-01-17T20:10:00.107Z,91.10
2023-01-17T20:13:50.488Z,80.20
2023-01-17T20:16:38.058Z,102.40
2023-01-17T20:19:20.094Z,114.20
2023-01-17T20:21:47.451Z,89.70
2023-01-17T20:24:16.852Z,128.10
2023-01-17T20:26:51.476Z,154.70
2023-01-17T20:30:14.772Z,116.10
2023-01-17T20:33:13.839Z,150.30
2023-01-17T20:36:27.797Z,119.40
2023-01-17T20:40:02.724Z,123.10
2023-01-17T20:44:10.849Z,133.70
2023-01-17T20:48:14.249Z,135.00
2023-01-17T20:51:08.021Z,133.80
2023-01-17T20:54:57.093Z,125.30
2023-01-17T20:57:33.094Z,118.80
2023-01-17T21:00:13.418Z,48.80
2023-01-17T21:02:53.285Z,96.90
2023-01-17T21:05:21.941Z,73.20
2023-01-17T21:08:20.016Z,55.80
2023-01-17T21:12:04.786Z,100.10
2023-01-17T21:14:32.262Z,60.70
2023-01-17T21:17:26.320Z,64.50
2023-01-17T21:20:23.166Z,59.50
2023-01-17T21:22:50.319Z,72.00
2023-01-17T21:25:26.885Z,159.80
2023-01-17T21:28:30.777Z,204.50
2023-01-17T21:31:01.965Z,229.40
2023-01-17T21:34:02.383Z,169.00
2023-01-17T21:36:42.250Z,125.40
2023-01-17T21:39:20.072Z,106.20
2023-01-17T21:42:38.984Z,126.80
2023-01-17T21:45:28.560Z,146.50
2023-01-17T21:48:37.016Z,104.10
2023-01-17T21:51:20.035Z,104.50
2023-01-17T21:55:10.911Z,91.90
2023-01-17T21:59:05.627Z,115.50
2023-01-17T22:50:15.173Z,51.30
2023-01-17T22:52:47.957Z,41.60
2023-01-17T22:55:15.923Z,56.00
2023-01-17T22:57:46.814Z,69.40
2023-01-17T23:00:15.621Z,61.10
2023-01-17T23:02:54.886Z,57.70
2023-01-17T23:05:25.310Z,81.40
2023-01-17T23:07:53.140Z,67.50
2023-01-17T23:10:38.983Z,87.90
2023-01-17T23:13:11.023Z,68.50
2023-01-17T23:15:57.963Z,72.50
2023-01-17T23:18:47.619Z,56.80
2023-01-17T23:21:14.725Z,63.50
2023-01-17T23:23:41.816Z,56.80
2023-01-17T23:26:14.908Z,64.30
2023-01-17T23:28:48.205Z,66.50
2023-01-17T23:31:25.742Z,69.40
2023-01-17T23:33:53.047Z,64.70
2023-01-17T23:36:40.287Z,73.60
2023-01-17T23:39:07.932Z,73.40
2023-01-17T23:41:53.925Z,56.50
2023-01-17T23:44:43.498Z,52.10
2023-01-17T23:47:10.647Z,55.90
2023-01-17T23:49:48.546Z,58.00
2023-01-17T23:52:17.133Z,47.80
2023-01-17T23:54:48.683Z,60.30
2023-01-17T23:57:15.948Z,48.90
2023-01-17T23:59:53.835Z,52.30
